Time;durP1;ratioP1;P1;durP2;ratioP2;P2;SDS_P1;SDS_P2;PMS_P1;PMS_P2;Temp;Humidity;BMP_temperature;BMP_pressure;BME280_temperature;BME280_humidity;BME280_pressure;Samples;Min_cycle;Max_cycle;Signal;HPM_P1;HPM_P2
2023/04/22 00:03:21;;;;;;;15.93;13.50;;;;;;;;;;10126418;28;20048;-68
2023/04/22 00:08:14;;;;;;;15.30;13.07;;;;;;;;;;10122579;28;20049;-68
2023/04/22 00:13:09;;;;;;;15.23;13.38;;;;;;;;;;10116612;28;20099;-67
2023/04/22 00:18:01;;;;;;;19.45;15.23;;;;;;;;;;10117643;28;20479;-67
2023/04/22 00:22:55;;;;;;;19.70;15.80;;;;;;;;;;10126413;28;20068;-67
2023/04/22 00:27:48;;;;;;;17.90;14.88;;;;;;;;;;10122823;28;20047;-67
2023/04/22 00:32:41;;;;;;;19.67;15.65;;;;;;;;;;10091982;28;20463;-68
2023/04/22 00:37:34;;;;;;;18.65;15.32;;;;;;;;;;10102713;28;20049;-68
2023/04/22 00:42:28;;;;;;;20.35;15.32;;;;;;;;;;10112213;28;20049;-68
2023/04/22 00:47:25;;;;;;;19.35;14.73;;;;;;;;;;10088830;28;20052;-68
2023/04/22 00:52:19;;;;;;;17.10;15.25;;;;;;;;;;10067377;28;20045;-68
2023/04/22 00:57:12;;;;;;;22.25;15.98;;;;;;;;;;10071587;28;20091;-67
2023/04/22 01:02:06;;;;;;;17.83;14.90;;;;;;;;;;10074626;28;20491;-68
2023/04/22 01:07:00;;;;;;;24.10;15.32;;;;;;;;;;10075814;28;20059;-68
2023/04/22 01:11:55;;;;;;;21.25;16.35;;;;;;;;;;10075936;28;20088;-68
2023/04/22 01:16:47;;;;;;;22.05;16.10;;;;;;;;;;10077604;28;20053;-69
2023/04/22 01:21:42;;;;;;;20.38;14.98;;;;;;;;;;10056937;28;20063;-68
2023/04/22 01:26:35;;;;;;;18.67;15.85;;;;;;;;;;10038328;28;20401;-69
2023/04/22 01:31:28;;;;;;;21.70;15.50;;;;;;;;;;10072412;28;20475;-69
2023/04/22 01:36:22;;;;;;;18.30;14.23;;;;;;;;;;10066828;28;20114;-68
2023/04/22 01:41:18;;;;;;;18.42;13.43;;;;;;;;;;10080854;28;20079;-68
2023/04/22 01:46:13;;;;;;;20.20;15.10;;;;;;;;;;10075237;28;20143;-67
2023/04/22 01:51:07;;;;;;;18.63;14.55;;;;;;;;;;10129167;28;20051;-67
2023/04/22 01:56:01;;;;;;;16.20;13.88;;;;;;;;;;10116381;28;20102;-67
2023/04/22 02:00:54;;;;;;;16.08;13.95;;;;;;;;;;10130866;28;20094;-68
2023/04/22 02:05:48;;;;;;;14.20;12.15;;;;;;;;;;10113643;28;20041;-68
2023/04/22 02:10:41;;;;;;;15.93;12.68;;;;;;;;;;10107768;28;20095;-67
2023/04/22 02:15:34;;;;;;;14.30;12.80;;;;;;;;;;10120858;28;20102;-67
2023/04/22 02:20:28;;;;;;;12.85;11.13;;;;;;;;;;10125300;28;20055;-68
2023/04/22 02:25:21;;;;;;;16.55;12.38;;;;;;;;;;10126966;28;20041;-68
2023/04/22 02:30:15;;;;;;;13.20;11.15;;;;;;;;;;10113370;28;20059;-68
2023/04/22 02:35:10;;;;;;;16.25;13.15;;;;;;;;;;10119273;28;20041;-68
2023/04/22 02:40:06;;;;;;;18.75;12.57;;;;;;;;;;10111717;28;20094;-68
2023/04/22 02:44:59;;;;;;;15.15;11.68;;;;;;;;;;10127352;28;20051;-68
2023/04/22 02:49:53;;;;;;;13.60;12.20;;;;;;;;;;10092785;28;20064;-69
2023/04/22 02:54:46;;;;;;;16.35;12.68;;;;;;;;;;10126742;28;20040;-68
2023/04/22 02:59:39;;;;;;;18.48;13.90;;;;;;;;;;10096301;28;20091;-69
2023/04/22 03:04:34;;;;;;;16.45;11.77;;;;;;;;;;10097640;28;20048;-69
2023/04/22 03:09:27;;;;;;;12.35;11.05;;;;;;;;;;10114718;28;20080;-68
2023/04/22 03:14:21;;;;;;;14.35;11.00;;;;;;;;;;10101745;28;20123;-69
2023/04/22 03:19:15;;;;;;;14.68;10.02;;;;;;;;;;10098786;28;20162;-68
2023/04/22 03:24:08;;;;;;;12.85;9.63;;;;;;;;;;10112857;28;20047;-69
2023/04/22 03:29:07;;;;;;;15.87;11.27;;;;;;;;;;10106403;28;20507;-69
2023/04/22 03:34:02;;;;;;;13.23;11.02;;;;;;;;;;10091998;28;20048;-69
2023/04/22 03:38:56;;;;;;;11.32;10.20;;;;;;;;;;10107707;28;20051;-68
2023/04/22 03:43:50;;;;;;;15.98;11.13;;;;;;;;;;10110837;28;20488;-69
2023/04/22 03:48:45;;;;;;;17.05;10.48;;;;;;;;;;10092217;28;20148;-68
2023/04/22 03:53:51;;;;;;;13.88;11.27;;;;;;;;;;10103137;28;20118;-69
2023/04/22 03:58:47;;;;;;;19.60;11.73;;;;;;;;;;10091321;28;20411;-69
2023/04/22 04:03:41;;;;;;;12.45;11.02;;;;;;;;;;10095016;28;20452;-68
2023/04/22 04:08:36;;;;;;;14.88;11.93;;;;;;;;;;10099089;28;20487;-67
2023/04/22 04:13:32;;;;;;;15.13;12.73;;;;;;;;;;10108272;28;20064;-68
2023/04/22 04:18:51;;;;;;;20.33;13.02;;;;;;;;;;10121332;28;20110;-68
2023/04/22 04:23:47;;;;;;;18.25;12.80;;;;;;;;;;10100659;28;20041;-69
2023/04/22 04:28:42;;;;;;;14.68;12.20;;;;;;;;;;10102840;28;20043;-68
2023/04/22 04:33:38;;;;;;;17.20;13.48;;;;;;;;;;10112849;28;20079;-68
2023/04/22 04:38:33;;;;;;;18.75;12.45;;;;;;;;;;10111935;28;20052;-68
2023/04/22 04:43:28;;;;;;;14.05;12.57;;;;;;;;;;10129639;28;20052;-68
2023/04/22 04:48:34;;;;;;;15.60;12.18;;;;;;;;;;10124382;28;20521;-68
2023/04/22 04:53:33;;;;;;;12.73;11.35;;;;;;;;;;10128374;28;20094;-67
2023/04/22 04:58:26;;;;;;;13.70;11.18;;;;;;;;;;10115108;28;20423;-69
2023/04/22 05:03:45;;;;;;;15.07;11.40;;;;;;;;;;10135355;28;20102;-68
2023/04/22 05:08:42;;;;;;;12.45;10.63;;;;;;;;;;10134007;28;20052;-69
2023/04/22 05:13:35;;;;;;;15.90;11.40;;;;;;;;;;10132441;28;20094;-68
2023/04/22 05:18:31;;;;;;;17.45;11.77;;;;;;;;;;10137332;28;20053;-68
2023/04/22 05:23:29;;;;;;;14.27;11.63;;;;;;;;;;10133240;28;20139;-66
2023/04/22 05:28:25;;;;;;;16.98;12.90;;;;;;;;;;10122811;28;20087;-66
2023/04/22 05:33:21;;;;;;;15.85;12.65;;;;;;;;;;10138734;28;20093;-65
2023/04/22 05:38:15;;;;;;;18.30;13.63;;;;;;;;;;10134962;28;20052;-66
2023/04/22 05:43:09;;;;;;;18.25;13.70;;;;;;;;;;10118844;28;20064;-66
2023/04/22 05:48:05;;;;;;;16.40;13.88;;;;;;;;;;10118141;28;20146;-65
2023/04/22 05:53:04;;;;;;;17.23;13.88;;;;;;;;;;10123539;28;20068;-67
2023/04/22 05:57:58;;;;;;;15.88;13.30;;;;;;;;;;10120597;28;20087;-69
2023/04/22 06:03:15;;;;;;;14.30;12.25;;;;;;;;;;10137222;28;20064;-67
2023/04/22 06:08:09;;;;;;;14.50;13.00;;;;;;;;;;10135165;28;20392;-67
2023/04/22 06:13:03;;;;;;;17.13;13.85;;;;;;;;;;10137996;28;20037;-67
2023/04/22 06:17:56;;;;;;;18.10;13.95;;;;;;;;;;10131075;28;20049;-68
2023/04/22 06:22:49;;;;;;;19.85;15.95;;;;;;;;;;10131898;28;20126;-65
2023/04/22 06:27:44;;;;;;;18.05;14.85;;;;;;;;;;10152228;28;20052;-67
2023/04/22 06:32:38;;;;;;;19.13;15.65;;;;;;;;;;10128077;28;20068;-66
2023/04/22 06:37:31;;;;;;;19.98;15.90;;;;;;;;;;10130082;28;20045;-66
2023/04/22 06:42:26;;;;;;;18.35;15.77;;;;;;;;;;10127920;28;20040;-65
2023/04/22 06:47:38;;;;;;;19.27;15.95;;;;;;;;;;10137473;28;20126;-65
2023/04/22 06:52:34;;;;;;;20.52;16.80;;;;;;;;;;10098453;28;20048;-66
2023/04/22 06:57:28;;;;;;;24.63;17.90;;;;;;;;;;10130336;28;20171;-66
2023/04/22 07:02:22;;;;;;;25.17;18.77;;;;;;;;;;10154646;28;20040;-66
2023/04/22 07:07:16;;;;;;;25.52;19.70;;;;;;;;;;10120648;28;20044;-66
2023/04/22 07:12:10;;;;;;;35.08;22.10;;;;;;;;;;10126407;28;20044;-65
2023/04/22 07:17:03;;;;;;;26.80;20.65;;;;;;;;;;10141070;28;20055;-64
2023/04/22 07:21:57;;;;;;;24.95;20.98;;;;;;;;;;10144070;28;20082;-64
2023/04/22 07:26:52;;;;;;;25.27;18.90;;;;;;;;;;10138662;28;20483;-64
2023/04/22 07:31:47;;;;;;;25.83;18.55;;;;;;;;;;10136793;28;20454;-64
2023/04/22 07:36:41;;;;;;;23.27;18.35;;;;;;;;;;10139372;28;20045;-64
2023/04/22 07:41:35;;;;;;;21.52;17.73;;;;;;;;;;10136227;28;20092;-64
2023/04/22 07:46:30;;;;;;;21.95;18.38;;;;;;;;;;10137354;28;20064;-66
2023/04/22 07:51:28;;;;;;;22.13;18.17;;;;;;;;;;10150612;28;20056;-64
2023/04/22 07:56:24;;;;;;;21.92;17.70;;;;;;;;;;10130108;28;20057;-65
2023/04/22 08:01:19;;;;;;;17.95;16.05;;;;;;;;;;10098991;28;20057;-66
2023/04/22 08:06:16;;;;;;;18.45;15.73;;;;;;;;;;10117318;28;20041;-67
2023/04/22 08:11:12;;;;;;;20.77;16.70;;;;;;;;;;10115535;28;20057;-68
2023/04/22 08:16:06;;;;;;;16.02;13.48;;;;;;;;;;10120397;28;20052;-68
2023/04/22 08:21:01;;;;;;;15.65;12.98;;;;;;;;;;10110699;28;20045;-68
2023/04/22 08:26:00;;;;;;;13.15;11.55;;;;;;;;;;10119859;28;20493;-67
2023/04/22 08:30:56;;;;;;;13.48;10.70;;;;;;;;;;10127225;28;20662;-69
2023/04/22 08:35:50;;;;;;;12.02;10.80;;;;;;;;;;10121114;28;20057;-68
2023/04/22 08:40:43;;;;;;;15.25;12.27;;;;;;;;;;10129053;28;20103;-68
2023/04/22 08:45:40;;;;;;;11.98;10.77;;;;;;;;;;10121482;28;20052;-68
2023/04/22 08:50:33;;;;;;;14.10;12.68;;;;;;;;;;10073289;28;20061;-68
2023/04/22 08:55:27;;;;;;;12.65;11.38;;;;;;;;;;10084643;28;20057;-69
2023/04/22 09:00:20;;;;;;;14.20;12.73;;;;;;;;;;10069068;28;20408;-68
2023/04/22 09:05:14;;;;;;;14.05;11.27;;;;;;;;;;10075885;28;20049;-68
2023/04/22 09:10:10;;;;;;;15.02;12.32;;;;;;;;;;10074803;28;20063;-68
2023/04/22 09:15:08;;;;;;;14.73;12.50;;;;;;;;;;10087668;28;20044;-69
2023/04/22 09:20:05;;;;;;;15.57;10.93;;;;;;;;;;10096625;28;20504;-69
2023/04/22 09:24:59;;;;;;;12.00;10.77;;;;;;;;;;10083675;28;20087;-68
2023/04/22 09:29:52;;;;;;;12.88;11.60;;;;;;;;;;10067193;28;20057;-74
2023/04/22 09:34:54;;;;;;;13.82;11.45;;;;;;;;;;10076390;28;20053;-76
2023/04/22 09:39:50;;;;;;;12.23;11.02;;;;;;;;;;10092292;28;20049;-74
2023/04/22 09:45:04;;;;;;;14.93;10.80;;;;;;;;;;10070002;28;20057;-76
2023/04/22 09:49:57;;;;;;;13.45;12.07;;;;;;;;;;10070978;28;20135;-75
2023/04/22 09:54:51;;;;;;;13.02;10.82;;;;;;;;;;10053938;28;20047;-74
2023/04/22 09:59:45;;;;;;;12.45;11.23;;;;;;;;;;10072904;28;20045;-75
2023/04/22 10:04:39;;;;;;;11.40;10.23;;;;;;;;;;10088837;28;20056;-75
2023/04/22 10:09:34;;;;;;;13.27;11.98;;;;;;;;;;10092049;28;20053;-75
2023/04/22 10:14:28;;;;;;;11.30;10.20;;;;;;;;;;10075805;28;20053;-74
2023/04/22 10:19:23;;;;;;;11.30;10.13;;;;;;;;;;10085443;28;20077;-75
2023/04/22 10:24:16;;;;;;;13.07;10.52;;;;;;;;;;10053597;28;20061;-75
2023/04/22 10:29:17;;;;;;;16.67;12.43;;;;;;;;;;10087341;28;20456;-75
2023/04/22 10:34:12;;;;;;;13.70;12.30;;;;;;;;;;10087490;28;20051;-75
2023/04/22 10:39:04;;;;;;;13.05;11.68;;;;;;;;;;10072171;28;20049;-74
2023/04/22 10:44:05;;;;;;;15.52;13.23;;;;;;;;;;10069355;28;20050;-75
2023/04/22 10:49:05;;;;;;;14.35;12.80;;;;;;;;;;10104700;28;20090;-74
2023/04/22 10:54:01;;;;;;;13.00;11.70;;;;;;;;;;10118700;28;20053;-74
2023/04/22 10:58:56;;;;;;;13.75;12.45;;;;;;;;;;10111428;28;20154;-74
2023/04/22 11:03:50;;;;;;;15.65;11.52;;;;;;;;;;10113231;28;20135;-74
2023/04/22 11:09:10;;;;;;;13.70;10.52;;;;;;;;;;10108239;28;20186;-73
2023/04/22 11:14:03;;;;;;;11.93;10.68;;;;;;;;;;10129980;28;20076;-75
2023/04/22 11:18:57;;;;;;;12.32;10.38;;;;;;;;;;10127862;28;20130;-73
2023/04/22 11:23:51;;;;;;;10.20;9.15;;;;;;;;;;10128984;28;20044;-71
2023/04/22 11:28:46;;;;;;;11.23;9.75;;;;;;;;;;10113253;28;20041;-72
2023/04/22 11:33:39;;;;;;;10.20;9.20;;;;;;;;;;10128558;28;20504;-73
2023/04/22 11:38:32;;;;;;;13.68;11.35;;;;;;;;;;10129938;28;20067;-73
2023/04/22 11:43:25;;;;;;;13.10;11.93;;;;;;;;;;10130904;28;20098;-70
2023/04/22 11:48:19;;;;;;;11.85;10.65;;;;;;;;;;10099444;28;20056;-66
2023/04/22 11:53:20;;;;;;;13.52;11.50;;;;;;;;;;10070073;28;20754;-66
2023/04/22 11:58:15;;;;;;;11.65;10.55;;;;;;;;;;10079334;28;20045;-67
2023/04/22 12:03:14;;;;;;;12.43;10.43;;;;;;;;;;10080280;28;20099;-67
2023/04/22 12:08:18;;;;;;;12.00;10.85;;;;;;;;;;10068108;28;20042;-67
2023/04/22 12:13:24;;;;;;;12.38;11.07;;;;;;;;;;10073203;28;20157;-68
2023/04/22 12:18:31;;;;;;;11.50;8.52;;;;;;;;;;10063511;28;20492;-68
2023/04/22 12:23:24;;;;;;;9.63;8.73;;;;;;;;;;10080526;28;20048;-67
2023/04/22 12:28:18;;;;;;;9.82;8.82;;;;;;;;;;10069542;28;20178;-67
2023/04/22 12:33:12;;;;;;;9.50;8.50;;;;;;;;;;10078081;28;20423;-67
2023/04/22 12:38:06;;;;;;;8.75;7.95;;;;;;;;;;10075266;28;20045;-69
2023/04/22 12:43:04;;;;;;;13.18;9.05;;;;;;;;;;10071472;28;20055;-68
2023/04/22 12:47:57;;;;;;;9.50;8.50;;;;;;;;;;10095663;28;20087;-68
2023/04/22 12:52:51;;;;;;;8.48;7.57;;;;;;;;;;10071317;28;20141;-68
2023/04/22 12:57:46;;;;;;;8.25;7.45;;;;;;;;;;10082080;28;20064;-68
2023/04/22 13:02:43;;;;;;;9.85;8.00;;;;;;;;;;10089634;28;20052;-69
2023/04/22 13:07:38;;;;;;;7.90;7.15;;;;;;;;;;10082439;28;20073;-69
2023/04/22 13:12:31;;;;;;;7.85;6.68;;;;;;;;;;10085621;28;20061;-68
2023/04/22 13:17:29;;;;;;;8.77;6.68;;;;;;;;;;10064959;28;20049;-68
2023/04/22 13:22:23;;;;;;;6.72;6.10;;;;;;;;;;10084519;28;20455;-68
2023/04/22 13:27:17;;;;;;;7.35;6.53;;;;;;;;;;10077152;28;20096;-68
2023/04/22 13:32:09;;;;;;;9.02;8.15;;;;;;;;;;10070328;28;20461;-68
2023/04/22 13:37:04;;;;;;;8.07;7.28;;;;;;;;;;10085378;28;20061;-68
2023/04/22 13:41:58;;;;;;;8.45;7.55;;;;;;;;;;10073193;28;20105;-68
2023/04/22 13:46:51;;;;;;;7.10;6.35;;;;;;;;;;10077207;28;20144;-68
2023/04/22 13:51:46;;;;;;;23.83;9.13;;;;;;;;;;10083837;28;20054;-68
2023/04/22 13:56:40;;;;;;;11.70;8.38;;;;;;;;;;10064402;28;20049;-68
2023/04/22 14:01:34;;;;;;;10.25;8.15;;;;;;;;;;10082719;28;20063;-68
2023/04/22 14:06:27;;;;;;;9.98;8.63;;;;;;;;;;10095315;28;20040;-67
2023/04/22 14:11:21;;;;;;;9.85;8.50;;;;;;;;;;10083294;28;20084;-68
2023/04/22 14:16:17;;;;;;;10.73;7.97;;;;;;;;;;10074701;28;20079;-70
2023/04/22 14:21:12;;;;;;;10.18;9.25;;;;;;;;;;10077663;28;20112;-68
2023/04/22 14:26:09;;;;;;;10.38;8.77;;;;;;;;;;10071123;28;20092;-67
2023/04/22 14:31:02;;;;;;;9.30;8.40;;;;;;;;;;10069903;28;20069;-67
2023/04/22 14:35:56;;;;;;;9.82;8.63;;;;;;;;;;10068709;28;20053;-68
2023/04/22 14:40:50;;;;;;;10.80;8.70;;;;;;;;;;10066479;28;20397;-69
2023/04/22 14:45:45;;;;;;;8.63;7.75;;;;;;;;;;10078633;28;20057;-70
2023/04/22 14:50:39;;;;;;;9.70;7.88;;;;;;;;;;10077269;28;20500;-73
2023/04/22 14:55:34;;;;;;;14.07;8.85;;;;;;;;;;10075691;28;20049;-70
2023/04/22 15:00:27;;;;;;;10.48;9.27;;;;;;;;;;10077109;28;20045;-72
2023/04/22 15:05:22;;;;;;;9.38;8.43;;;;;;;;;;10085359;28;20045;-71
2023/04/22 15:10:16;;;;;;;9.60;8.43;;;;;;;;;;10071586;28;20046;-70
2023/04/22 15:15:15;;;;;;;11.40;10.00;;;;;;;;;;10098511;28;20519;-69
2023/04/22 15:20:10;;;;;;;11.63;10.40;;;;;;;;;;10085623;28;20037;-68
2023/04/22 15:25:04;;;;;;;15.20;11.32;;;;;;;;;;10069377;28;20049;-68
2023/04/22 15:29:58;;;;;;;10.98;9.02;;;;;;;;;;10069411;28;20407;-68
2023/04/22 15:34:50;;;;;;;13.38;11.90;;;;;;;;;;10084916;28;20052;-68
2023/04/22 15:39:44;;;;;;;13.55;10.20;;;;;;;;;;10078025;28;20045;-68
2023/04/22 15:44:39;;;;;;;12.00;10.80;;;;;;;;;;10049791;28;20432;-68
2023/04/22 15:49:37;;;;;;;9.77;8.77;;;;;;;;;;10111605;28;20057;-68
2023/04/22 15:54:30;;;;;;;10.00;8.90;;;;;;;;;;10107012;28;20083;-72
2023/04/22 15:59:24;;;;;;;11.90;10.02;;;;;;;;;;10124902;28;20048;-69
2023/04/22 16:04:18;;;;;;;12.23;9.45;;;;;;;;;;10131143;28;20415;-66
2023/04/22 16:09:12;;;;;;;10.20;9.15;;;;;;;;;;10121994;28;20619;-68
2023/04/22 16:14:08;;;;;;;10.73;9.60;;;;;;;;;;10114959;28;20510;-68
2023/04/22 16:19:03;;;;;;;10.48;8.82;;;;;;;;;;10124921;28;20659;-68
2023/04/22 16:23:57;;;;;;;8.80;7.88;;;;;;;;;;10123405;28;20048;-68
2023/04/22 16:28:50;;;;;;;9.75;7.85;;;;;;;;;;10101941;28;20131;-68
2023/04/22 16:33:45;;;;;;;8.57;7.63;;;;;;;;;;10115717;28;20059;-67
2023/04/22 16:38:38;;;;;;;9.63;7.25;;;;;;;;;;10135973;28;20131;-69
2023/04/22 16:43:32;;;;;;;9.23;7.40;;;;;;;;;;10115659;28;21340;-70
2023/04/22 16:48:25;;;;;;;9.25;7.55;;;;;;;;;;10091936;28;20057;-67
2023/04/22 16:53:20;;;;;;;12.10;8.48;;;;;;;;;;10083313;28;20045;-67
2023/04/22 16:58:15;;;;;;;8.82;7.55;;;;;;;;;;10103688;28;20045;-69
2023/04/22 17:03:10;;;;;;;10.40;8.18;;;;;;;;;;10091858;28;20057;-68
2023/04/22 17:08:04;;;;;;;11.02;9.93;;;;;;;;;;10081206;28;20545;-68
2023/04/22 17:12:57;;;;;;;11.25;8.88;;;;;;;;;;10077279;28;20531;-68
2023/04/22 17:17:50;;;;;;;13.82;11.52;;;;;;;;;;10099961;28;20431;-68
2023/04/22 17:22:45;;;;;;;11.13;9.82;;;;;;;;;;10072702;28;20069;-68
2023/04/22 17:27:40;;;;;;;12.68;9.57;;;;;;;;;;10092868;28;20079;-68
2023/04/22 17:32:37;;;;;;;9.75;8.75;;;;;;;;;;10091571;28;20068;-68
2023/04/22 17:37:31;;;;;;;10.05;9.05;;;;;;;;;;10083353;28;20168;-70
2023/04/22 17:42:25;;;;;;;10.35;8.60;;;;;;;;;;10082080;28;20057;-68
2023/04/22 17:47:34;;;;;;;12.20;7.90;;;;;;;;;;10078582;28;20420;-71
2023/04/22 17:52:28;;;;;;;10.88;8.50;;;;;;;;;;10078673;28;20496;-67
2023/04/22 17:57:21;;;;;;;11.85;7.75;;;;;;;;;;10086121;28;20049;-68
2023/04/22 18:02:15;;;;;;;9.88;8.50;;;;;;;;;;10090681;28;20404;-66
2023/04/22 18:07:08;;;;;;;10.05;8.10;;;;;;;;;;10098819;28;20057;-65
2023/04/22 18:12:01;;;;;;;9.63;8.60;;;;;;;;;;10090925;28;20393;-68
2023/04/22 18:16:54;;;;;;;10.52;8.93;;;;;;;;;;10087586;28;20063;-69
2023/04/22 18:21:48;;;;;;;13.57;10.25;;;;;;;;;;10092532;28;20033;-70
2023/04/22 18:26:51;;;;;;;11.15;10.05;;;;;;;;;;10079058;28;20410;-72
2023/04/22 18:31:45;;;;;;;14.20;10.05;;;;;;;;;;10105909;28;20045;-70
2023/04/22 18:36:39;;;;;;;11.07;9.75;;;;;;;;;;10081415;28;20063;-81
2023/04/22 18:41:32;;;;;;;10.73;9.50;;;;;;;;;;10104945;28;20048;-73
2023/04/22 18:46:27;;;;;;;10.60;9.52;;;;;;;;;;10103459;28;20110;-72
2023/04/22 18:51:21;;;;;;;10.35;9.35;;;;;;;;;;10151243;28;20495;-72
2023/04/22 18:56:15;;;;;;;11.55;10.10;;;;;;;;;;10141902;28;20079;-72
2023/04/22 19:01:10;;;;;;;11.88;10.05;;;;;;;;;;10145748;28;20151;-73
2023/04/22 19:06:04;;;;;;;11.52;10.07;;;;;;;;;;10144671;28;20039;-73
2023/04/22 19:10:57;;;;;;;13.88;11.05;;;;;;;;;;10149992;28;20052;-73
2023/04/22 19:15:52;;;;;;;15.40;10.60;;;;;;;;;;10138891;28;20051;-74
2023/04/22 19:20:46;;;;;;;13.13;11.05;;;;;;;;;;10129691;28;20041;-73
2023/04/22 19:25:40;;;;;;;12.27;10.63;;;;;;;;;;10138975;28;20475;-73
2023/04/22 19:30:33;;;;;;;15.18;12.23;;;;;;;;;;10136664;28;20644;-74
2023/04/22 19:35:27;;;;;;;14.20;11.55;;;;;;;;;;10132530;28;20423;-73
2023/04/22 19:40:20;;;;;;;10.85;9.73;;;;;;;;;;10138391;28;20041;-73
2023/04/22 19:45:14;;;;;;;13.80;10.02;;;;;;;;;;10125852;28;20039;-73
2023/04/22 19:50:09;;;;;;;17.20;10.77;;;;;;;;;;10150158;28;20080;-74
2023/04/22 19:55:08;;;;;;;11.10;10.02;;;;;;;;;;10149029;28;20050;-75
2023/04/22 20:00:06;;;;;;;15.43;10.45;;;;;;;;;;10148091;28;20487;-75
2023/04/22 20:05:07;;;;;;;12.23;9.82;;;;;;;;;;10148724;28;20082;-76
2023/04/22 20:10:08;;;;;;;12.05;10.65;;;;;;;;;;10149276;28;20064;-75
2023/04/22 20:15:04;;;;;;;11.55;10.35;;;;;;;;;;10136147;28;20045;-73
2023/04/22 20:20:00;;;;;;;13.18;11.00;;;;;;;;;;10140925;28;20056;-69
2023/04/22 20:25:03;;;;;;;18.80;11.43;;;;;;;;;;10143570;28;20124;-72
2023/04/22 20:29:59;;;;;;;11.98;10.88;;;;;;;;;;10141344;28;20094;-72
2023/04/22 20:34:53;;;;;;;12.23;10.52;;;;;;;;;;10144547;28;20101;-72
2023/04/22 20:39:49;;;;;;;15.48;10.93;;;;;;;;;;10140862;28;20072;-73
2023/04/22 20:44:42;;;;;;;13.98;12.43;;;;;;;;;;10157035;28;20040;-72
2023/04/22 20:49:39;;;;;;;13.52;11.95;;;;;;;;;;10137214;28;20131;-72
2023/04/22 20:54:33;;;;;;;13.13;11.83;;;;;;;;;;10148893;28;20048;-73
2023/04/22 20:59:27;;;;;;;13.55;11.48;;;;;;;;;;10157994;28;20057;-72
2023/04/22 21:04:24;;;;;;;12.43;11.23;;;;;;;;;;10152217;28;20052;-72
2023/04/22 21:09:21;;;;;;;13.20;11.85;;;;;;;;;;10136363;28;20063;-73
2023/04/22 21:14:17;;;;;;;12.85;10.82;;;;;;;;;;10139616;28;20052;-70
2023/04/22 21:19:12;;;;;;;13.77;12.18;;;;;;;;;;10131726;28;20051;-72
2023/04/22 21:24:08;;;;;;;12.75;11.38;;;;;;;;;;10132527;28;20048;-70
2023/04/22 21:29:02;;;;;;;21.92;13.60;;;;;;;;;;10138354;28;20036;-70
2023/04/22 21:33:56;;;;;;;16.40;14.02;;;;;;;;;;10139822;28;20051;-72
2023/04/22 21:38:50;;;;;;;14.77;13.27;;;;;;;;;;10148587;28;20139;-70
2023/04/22 21:43:44;;;;;;;14.30;12.80;;;;;;;;;;10141932;28;20061;-70
2023/04/22 21:48:37;;;;;;;13.82;12.38;;;;;;;;;;10131967;28;20136;-71
2023/04/22 21:53:34;;;;;;;12.93;11.63;;;;;;;;;;10150264;28;20135;-72
2023/04/22 21:58:26;;;;;;;14.13;11.75;;;;;;;;;;10146628;28;20452;-72
2023/04/22 22:03:19;;;;;;;15.07;13.05;;;;;;;;;;10144391;28;20079;-72
2023/04/22 22:08:14;;;;;;;15.18;12.38;;;;;;;;;;10150694;28;20083;-70
2023/04/22 22:13:08;;;;;;;13.93;12.30;;;;;;;;;;10141663;28;20044;-70
2023/04/22 22:18:03;;;;;;;13.30;11.93;;;;;;;;;;10140811;28;20059;-70
2023/04/22 22:22:56;;;;;;;16.23;12.05;;;;;;;;;;10142594;28;20036;-70
2023/04/22 22:27:49;;;;;;;13.93;12.40;;;;;;;;;;10148255;28;20442;-70
2023/04/22 22:32:42;;;;;;;17.17;12.88;;;;;;;;;;10157515;28;20403;-71
2023/04/22 22:37:35;;;;;;;17.17;13.65;;;;;;;;;;10148886;28;20068;-71
2023/04/22 22:42:28;;;;;;;16.95;12.57;;;;;;;;;;10132511;28;20106;-72
2023/04/22 22:47:21;;;;;;;17.05;13.23;;;;;;;;;;10147852;28;20499;-71
2023/04/22 22:52:15;;;;;;;15.15;12.88;;;;;;;;;;10123258;28;20074;-72
2023/04/22 22:57:11;;;;;;;16.15;13.70;;;;;;;;;;10144965;28;20048;-72
2023/04/22 23:02:05;;;;;;;20.42;14.50;;;;;;;;;;10153808;28;20044;-72
2023/04/22 23:06:58;;;;;;;15.25;13.48;;;;;;;;;;10150959;28;20068;-72
2023/04/22 23:11:54;;;;;;;16.83;14.02;;;;;;;;;;10143327;28;20040;-71
2023/04/22 23:16:47;;;;;;;16.80;14.63;;;;;;;;;;10144196;28;20043;-71
2023/04/22 23:21:42;;;;;;;18.88;13.95;;;;;;;;;;10144363;28;20040;-72
2023/04/22 23:26:35;;;;;;;17.42;14.65;;;;;;;;;;10145833;28;20060;-72
2023/04/22 23:31:29;;;;;;;18.33;14.82;;;;;;;;;;10148445;28;20094;-72
2023/04/22 23:36:23;;;;;;;17.35;14.48;;;;;;;;;;10143126;28;20045;-72
2023/04/22 23:41:17;;;;;;;16.63;12.85;;;;;;;;;;10148178;28;20056;-71
2023/04/22 23:46:11;;;;;;;17.75;13.90;;;;;;;;;;10145769;28;20068;-71
2023/04/22 23:51:05;;;;;;;14.00;12.52;;;;;;;;;;10139554;28;20048;-71
2023/04/22 23:55:59;;;;;;;17.25;13.20;;;;;;;;;;10108051;28;20052;-71
